Jhelum Weather



Jhelum's Current Weather

Temprature 25.91o broken clouds

broken clouds

Rain: 0 %

Min Temprature25.91o
Max Temprature25.91o
Humidity41
Wind Speed4.65 m/h
Sun Rise05:00:57
Sun Set19:03:10
Current Time: 24-May-2022 08:14:17
Lat/Lon: 32.9331, 73.7264




Jhelum's Geo Location



Jhelum's Weather Forecast

Time Overall Temp Min Temp Max Temp Humidity Wind Speed Rain
24-May-2022 (Tue)
11:00:00 broken clouds 27.810 27.810 31.600 35 5.43 m/h 0 %
14:00:00 few clouds 30.940 30.940 33.460 29 5.13 m/h 0 %
17:00:00 clear sky 33.840 33.840 33.840 22 2.11 m/h 0 %
20:00:00 clear sky 30.380 30.380 30.380 26 1.18 m/h 0 %
23:00:00 clear sky 28.370 28.370 28.370 30 1.21 m/h 0 %
25-May-2022 (Wed)
02:00:00 clear sky 26.410 26.410 26.410 33 2.08 m/h 0 %
05:00:00 clear sky 25.250 25.250 25.250 35 2.08 m/h 0 %
08:00:00 clear sky 31.430 31.430 31.430 24 1.13 m/h 0 %
11:00:00 clear sky 36.590 36.590 36.590 16 2.92 m/h 0 %
14:00:00 clear sky 39.220 39.220 39.220 13 3.38 m/h 0 %
17:00:00 clear sky 39.430 39.430 39.430 13 3.71 m/h 0 %
20:00:00 clear sky 34.130 34.130 34.130 18 2.98 m/h 0 %
23:00:00 clear sky 31.400 31.400 31.400 23 0.52 m/h 0 %
26-May-2022 (Thu)
02:00:00 clear sky 29.430 29.430 29.430 24 1.87 m/h 0 %
05:00:00 clear sky 27.940 27.940 27.940 26 1.21 m/h 0 %
08:00:00 clear sky 34.530 34.530 34.530 18 2 m/h 0 %
11:00:00 clear sky 39.790 39.790 39.790 13 3.4 m/h 0 %
14:00:00 clear sky 42.330 42.330 42.330 11 3.49 m/h 0 %
17:00:00 clear sky 42.580 42.580 42.580 10 4.12 m/h 0 %
20:00:00 clear sky 36.610 36.610 36.610 15 3.18 m/h 0 %
23:00:00 clear sky 33.260 33.260 33.260 18 0.44 m/h 0 %
27-May-2022 (Fri)
02:00:00 clear sky 31.130 31.130 31.130 20 2.12 m/h 0 %
05:00:00 clear sky 29.500 29.500 29.500 22 0.3 m/h 0 %
08:00:00 clear sky 36.640 36.640 36.640 15 3.11 m/h 0 %
11:00:00 clear sky 42.300 42.300 42.300 11 2.93 m/h 0 %
14:00:00 clear sky 44.850 44.850 44.850 8 2.45 m/h 0 %
17:00:00 clear sky 45.080 45.080 45.080 8 2.75 m/h 0 %
20:00:00 clear sky 39.080 39.080 39.080 11 1.41 m/h 0 %
23:00:00 clear sky 35.490 35.490 35.490 14 2.83 m/h 0 %
28-May-2022 (Sat)
02:00:00 clear sky 32.510 32.510 32.510 18 0.52 m/h 0 %
05:00:00 clear sky 30.950 30.950 30.950 20 1.91 m/h 0 %
08:00:00 clear sky 38.610 38.610 38.610 14 3.22 m/h 0 %
11:00:00 clear sky 44.020 44.020 44.020 13 8.06 m/h 0 %
14:00:00 clear sky 46.300 46.300 46.300 11 7.61 m/h 0 %
17:00:00 few clouds 45.100 45.100 45.100 6 8.04 m/h 0 %
20:00:00 clear sky 35.440 35.440 35.440 22 9.76 m/h 0 %
23:00:00 clear sky 32.600 32.600 32.600 28 2.62 m/h 0 %
29-May-2022 (Sun)
02:00:00 clear sky 29.980 29.980 29.980 33 0.8 m/h 0 %
05:00:00 clear sky 28.510 28.510 28.510 35 2.01 m/h 0 %
08:00:00 clear sky 36.810 36.810 36.810 22 7.1 m/h 0 %

Famous Cities (61)